Terminal Aerodrome Forecast
Issued by NWS

Home | Current Version | Previous Version | Text Only | Print | Product List | Glossary On
Versions: 1 2 3 4 5 6 7 8 9 10 11 12 13 14 15
000
FTUS45 KBYZ 280521
TAFLVM
TAF
KLVM 280521Z 2806/2906 21017G24KT P6SM BKN150
     FM280900 28008KT P6SM BKN150
     FM281400 28010G20KT P6SM FEW120 BKN150
     FM281700 28015G29KT P6SM BKN120
     FM290300 09006KT P6SM SCT120=

USA.gov is the U.S. government's official web portal to all federal, state and local government web resources and services.